sensor_id;sensor_type;location;lat;lon;timestamp;temperature;humidity
9790;DHT22;4934;50.852;8.098;2023-08-17T00:02:12;18.30;99.90
9790;DHT22;4934;50.852;8.098;2023-08-17T00:04:39;18.30;99.90
9790;DHT22;4934;50.852;8.098;2023-08-17T00:07:05;18.30;99.90
9790;DHT22;4934;50.852;8.098;2023-08-17T00:09:30;18.20;99.90
9790;DHT22;4934;50.852;8.098;2023-08-17T00:11:56;18.20;99.90
9790;DHT22;4934;50.852;8.098;2023-08-17T00:14:21;18.20;99.90
9790;DHT22;4934;50.852;8.098;2023-08-17T00:16:48;18.20;99.90
9790;DHT22;4934;50.852;8.098;2023-08-17T00:19:14;18.10;99.90
9790;DHT22;4934;50.852;8.098;2023-08-17T00:21:40;18.10;99.90
9790;DHT22;4934;50.852;8.098;2023-08-17T00:24:05;18.10;99.90
9790;DHT22;4934;50.852;8.098;2023-08-17T00:26:31;18.10;99.90
9790;DHT22;4934;50.852;8.098;2023-08-17T00:28:56;18.20;99.90
9790;DHT22;4934;50.852;8.098;2023-08-17T00:31:22;18.10;99.90
9790;DHT22;4934;50.852;8.098;2023-08-17T00:33:48;18.00;99.90
9790;DHT22;4934;50.852;8.098;2023-08-17T00:36:13;17.90;99.90
9790;DHT22;4934;50.852;8.098;2023-08-17T00:38:39;17.90;99.90
9790;DHT22;4934;50.852;8.098;2023-08-17T00:41:05;17.90;99.90
9790;DHT22;4934;50.852;8.098;2023-08-17T00:43:30;17.80;99.90
9790;DHT22;4934;50.852;8.098;2023-08-17T00:45:56;17.80;99.90
9790;DHT22;4934;50.852;8.098;2023-08-17T00:48:22;17.80;99.90
9790;DHT22;4934;50.852;8.098;2023-08-17T00:50:50;17.70;99.90
9790;DHT22;4934;50.852;8.098;2023-08-17T00:53:18;17.70;99.90
9790;DHT22;4934;50.852;8.098;2023-08-17T00:55:45;17.60;99.90
9790;DHT22;4934;50.852;8.098;2023-08-17T00:58:10;17.50;99.90
9790;DHT22;4934;50.852;8.098;2023-08-17T01:00:37;17.40;99.90
9790;DHT22;4934;50.852;8.098;2023-08-17T01:03:03;17.40;99.90
9790;DHT22;4934;50.852;8.098;2023-08-17T01:05:29;17.30;99.90
9790;DHT22;4934;50.852;8.098;2023-08-17T01:07:56;17.30;99.90
9790;DHT22;4934;50.852;8.098;2023-08-17T01:10:23;17.20;99.90
9790;DHT22;4934;50.852;8.098;2023-08-17T01:13:13;17.20;99.90
9790;DHT22;4934;50.852;8.098;2023-08-17T01:15:46;17.10;99.90
9790;DHT22;4934;50.852;8.098;2023-08-17T01:18:33;17.10;99.90
9790;DHT22;4934;50.852;8.098;2023-08-17T01:21:00;17.00;99.90
9790;DHT22;4934;50.852;8.098;2023-08-17T01:23:27;17.00;99.90
9790;DHT22;4934;50.852;8.098;2023-08-17T01:25:53;17.10;99.90
9790;DHT22;4934;50.852;8.098;2023-08-17T01:28:19;17.00;99.90
9790;DHT22;4934;50.852;8.098;2023-08-17T01:31:08;17.00;99.90
9790;DHT22;4934;50.852;8.098;2023-08-17T01:33:37;17.00;99.90
9790;DHT22;4934;50.852;8.098;2023-08-17T01:36:13;16.90;99.90
9790;DHT22;4934;50.852;8.098;2023-08-17T01:38:42;16.90;99.90
9790;DHT22;4934;50.852;8.098;2023-08-17T01:41:10;16.90;99.90
9790;DHT22;4934;50.852;8.098;2023-08-17T01:43:42;16.90;99.90
9790;DHT22;4934;50.852;8.098;2023-08-17T01:46:13;16.90;99.90
9790;DHT22;4934;50.852;8.098;2023-08-17T01:48:39;16.80;99.90
9790;DHT22;4934;50.852;8.098;2023-08-17T01:51:05;16.90;99.90
9790;DHT22;4934;50.852;8.098;2023-08-17T01:53:30;16.90;99.90
9790;DHT22;4934;50.852;8.098;2023-08-17T01:55:56;17.00;99.90
9790;DHT22;4934;50.852;8.098;2023-08-17T01:58:21;17.00;99.90
9790;DHT22;4934;50.852;8.098;2023-08-17T02:00:47;16.90;99.90
9790;DHT22;4934;50.852;8.098;2023-08-17T02:03:12;17.00;99.90
9790;DHT22;4934;50.852;8.098;2023-08-17T02:05:38;16.90;99.90
9790;DHT22;4934;50.852;8.098;2023-08-17T02:08:04;16.90;99.90
9790;DHT22;4934;50.852;8.098;2023-08-17T02:10:29;16.90;99.90
9790;DHT22;4934;50.852;8.098;2023-08-17T02:12:55;16.80;99.90
9790;DHT22;4934;50.852;8.098;2023-08-17T02:15:20;16.80;99.90
9790;DHT22;4934;50.852;8.098;2023-08-17T02:17:46;16.80;99.90
9790;DHT22;4934;50.852;8.098;2023-08-17T02:20:11;16.70;99.90
9790;DHT22;4934;50.852;8.098;2023-08-17T02:22:37;16.70;99.90
9790;DHT22;4934;50.852;8.098;2023-08-17T02:25:03;16.80;99.90
9790;DHT22;4934;50.852;8.098;2023-08-17T02:27:29;16.70;99.90
9790;DHT22;4934;50.852;8.098;2023-08-17T02:29:56;16.70;99.90
9790;DHT22;4934;50.852;8.098;2023-08-17T02:32:22;16.70;99.90
9790;DHT22;4934;50.852;8.098;2023-08-17T02:34:47;16.70;99.90
9790;DHT22;4934;50.852;8.098;2023-08-17T02:37:13;16.80;99.90
9790;DHT22;4934;50.852;8.098;2023-08-17T02:39:39;16.90;99.90
9790;DHT22;4934;50.852;8.098;2023-08-17T02:42:05;16.90;99.90
9790;DHT22;4934;50.852;8.098;2023-08-17T02:44:30;16.70;99.90
9790;DHT22;4934;50.852;8.098;2023-08-17T02:46:56;16.70;99.90
9790;DHT22;4934;50.852;8.098;2023-08-17T02:49:22;16.60;99.90
9790;DHT22;4934;50.852;8.098;2023-08-17T02:51:47;16.60;99.90
9790;DHT22;4934;50.852;8.098;2023-08-17T02:54:13;16.60;99.90
9790;DHT22;4934;50.852;8.098;2023-08-17T02:56:38;16.50;99.90
9790;DHT22;4934;50.852;8.098;2023-08-17T02:59:04;16.50;99.90
9790;DHT22;4934;50.852;8.098;2023-08-17T03:01:30;16.40;99.90
9790;DHT22;4934;50.852;8.098;2023-08-17T03:03:56;16.40;99.90
9790;DHT22;4934;50.852;8.098;2023-08-17T03:06:22;16.30;99.90
9790;DHT22;4934;50.852;8.098;2023-08-17T03:08:47;16.40;99.90
9790;DHT22;4934;50.852;8.098;2023-08-17T03:11:13;16.40;99.90
9790;DHT22;4934;50.852;8.098;2023-08-17T03:13:38;16.30;99.90
9790;DHT22;4934;50.852;8.098;2023-08-17T03:16:04;16.30;99.90
9790;DHT22;4934;50.852;8.098;2023-08-17T03:18:30;16.40;99.90
9790;DHT22;4934;50.852;8.098;2023-08-17T03:20:55;16.40;99.90
9790;DHT22;4934;50.852;8.098;2023-08-17T03:23:21;16.50;99.90
9790;DHT22;4934;50.852;8.098;2023-08-17T03:25:52;16.40;99.90
9790;DHT22;4934;50.852;8.098;2023-08-17T03:28:17;16.40;99.90
9790;DHT22;4934;50.852;8.098;2023-08-17T03:30:43;16.40;99.90
9790;DHT22;4934;50.852;8.098;2023-08-17T03:33:09;16.50;99.90
9790;DHT22;4934;50.852;8.098;2023-08-17T03:35:34;16.40;99.90
9790;DHT22;4934;50.852;8.098;2023-08-17T03:38:00;16.40;99.90
9790;DHT22;4934;50.852;8.098;2023-08-17T03:40:25;16.30;99.90
9790;DHT22;4934;50.852;8.098;2023-08-17T03:42:51;16.20;99.90
9790;DHT22;4934;50.852;8.098;2023-08-17T03:45:18;16.30;99.90
9790;DHT22;4934;50.852;8.098;2023-08-17T03:47:44;16.40;99.90
9790;DHT22;4934;50.852;8.098;2023-08-17T03:50:10;16.50;99.90
9790;DHT22;4934;50.852;8.098;2023-08-17T03:52:35;16.60;99.90
9790;DHT22;4934;50.852;8.098;2023-08-17T03:55:01;16.50;99.90
9790;DHT22;4934;50.852;8.098;2023-08-17T03:57:27;16.40;99.90
9790;DHT22;4934;50.852;8.098;2023-08-17T03:59:52;16.40;99.90
9790;DHT22;4934;50.852;8.098;2023-08-17T04:02:18;16.40;99.90
9790;DHT22;4934;50.852;8.098;2023-08-17T04:04:43;16.40;99.90
9790;DHT22;4934;50.852;8.098;2023-08-17T04:07:09;16.50;99.90
9790;DHT22;4934;50.852;8.098;2023-08-17T04:09:35;16.50;99.90
9790;DHT22;4934;50.852;8.098;2023-08-17T04:12:00;16.60;99.90
9790;DHT22;4934;50.852;8.098;2023-08-17T04:14:29;16.70;99.90
9790;DHT22;4934;50.852;8.098;2023-08-17T04:16:54;16.70;99.90
9790;DHT22;4934;50.852;8.098;2023-08-17T04:19:22;16.60;99.90
9790;DHT22;4934;50.852;8.098;2023-08-17T04:21:47;16.60;99.90
9790;DHT22;4934;50.852;8.098;2023-08-17T04:24:13;16.70;99.90
9790;DHT22;4934;50.852;8.098;2023-08-17T04:26:38;16.70;99.90
9790;DHT22;4934;50.852;8.098;2023-08-17T04:29:04;16.70;99.90
9790;DHT22;4934;50.852;8.098;2023-08-17T04:31:29;16.70;99.90
9790;DHT22;4934;50.852;8.098;2023-08-17T04:33:55;16.70;99.90
9790;DHT22;4934;50.852;8.098;2023-08-17T04:36:20;16.70;99.90
9790;DHT22;4934;50.852;8.098;2023-08-17T04:38:46;16.70;99.90
9790;DHT22;4934;50.852;8.098;2023-08-17T04:41:12;16.70;99.90
9790;DHT22;4934;50.852;8.098;2023-08-17T04:43:37;16.70;99.90
9790;DHT22;4934;50.852;8.098;2023-08-17T04:46:03;16.80;99.90
9790;DHT22;4934;50.852;8.098;2023-08-17T04:48:29;16.80;99.90
9790;DHT22;4934;50.852;8.098;2023-08-17T04:50:54;16.80;99.90
9790;DHT22;4934;50.852;8.098;2023-08-17T04:53:20;16.90;99.90
9790;DHT22;4934;50.852;8.098;2023-08-17T04:55:45;17.00;99.90
9790;DHT22;4934;50.852;8.098;2023-08-17T04:58:11;17.00;99.90
9790;DHT22;4934;50.852;8.098;2023-08-17T05:00:37;17.10;99.90
9790;DHT22;4934;50.852;8.098;2023-08-17T05:03:03;17.10;99.90
9790;DHT22;4934;50.852;8.098;2023-08-17T05:05:29;17.10;99.90
9790;DHT22;4934;50.852;8.098;2023-08-17T05:07:54;17.20;99.90
9790;DHT22;4934;50.852;8.098;2023-08-17T05:10:20;17.20;99.90
9790;DHT22;4934;50.852;8.098;2023-08-17T05:12:45;17.30;99.90
9790;DHT22;4934;50.852;8.098;2023-08-17T05:15:12;17.40;99.90
9790;DHT22;4934;50.852;8.098;2023-08-17T05:17:37;17.40;99.90
9790;DHT22;4934;50.852;8.098;2023-08-17T05:20:04;17.40;99.90
9790;DHT22;4934;50.852;8.098;2023-08-17T05:22:30;17.40;99.90
9790;DHT22;4934;50.852;8.098;2023-08-17T05:24:55;17.30;99.90
9790;DHT22;4934;50.852;8.098;2023-08-17T05:27:21;17.30;99.90
9790;DHT22;4934;50.852;8.098;2023-08-17T05:29:46;17.40;99.90
9790;DHT22;4934;50.852;8.098;2023-08-17T05:32:12;17.40;99.90
9790;DHT22;4934;50.852;8.098;2023-08-17T05:34:37;17.30;99.90
9790;DHT22;4934;50.852;8.098;2023-08-17T05:37:03;17.40;99.90
9790;DHT22;4934;50.852;8.098;2023-08-17T05:39:29;17.40;99.90
9790;DHT22;4934;50.852;8.098;2023-08-17T05:41:55;17.40;99.90
9790;DHT22;4934;50.852;8.098;2023-08-17T05:44:20;17.40;99.90
9790;DHT22;4934;50.852;8.098;2023-08-17T05:46:46;17.40;99.90
9790;DHT22;4934;50.852;8.098;2023-08-17T05:49:11;17.40;99.90
9790;DHT22;4934;50.852;8.098;2023-08-17T05:51:37;17.50;99.90
9790;DHT22;4934;50.852;8.098;2023-08-17T05:54:03;17.50;99.90
9790;DHT22;4934;50.852;8.098;2023-08-17T05:56:29;17.50;99.90
9790;DHT22;4934;50.852;8.098;2023-08-17T05:58:54;17.60;99.90
9790;DHT22;4934;50.852;8.098;2023-08-17T06:01:20;17.70;99.90
9790;DHT22;4934;50.852;8.098;2023-08-17T06:03:45;17.80;99.90
9790;DHT22;4934;50.852;8.098;2023-08-17T06:06:11;17.80;99.90
9790;DHT22;4934;50.852;8.098;2023-08-17T06:08:37;17.90;99.90
9790;DHT22;4934;50.852;8.098;2023-08-17T06:11:02;17.90;99.90
9790;DHT22;4934;50.852;8.098;2023-08-17T06:13:28;18.00;99.90
9790;DHT22;4934;50.852;8.098;2023-08-17T06:15:55;18.00;99.90
9790;DHT22;4934;50.852;8.098;2023-08-17T06:18:21;18.10;99.90
9790;DHT22;4934;50.852;8.098;2023-08-17T06:20:46;18.20;99.90
9790;DHT22;4934;50.852;8.098;2023-08-17T06:23:13;18.30;99.90
9790;DHT22;4934;50.852;8.098;2023-08-17T06:25:39;18.40;99.90
9790;DHT22;4934;50.852;8.098;2023-08-17T06:28:06;18.40;99.90
9790;DHT22;4934;50.852;8.098;2023-08-17T06:30:31;18.50;99.90
9790;DHT22;4934;50.852;8.098;2023-08-17T06:32:57;18.60;99.90
9790;DHT22;4934;50.852;8.098;2023-08-17T06:35:22;18.70;99.90
9790;DHT22;4934;50.852;8.098;2023-08-17T06:37:48;18.70;99.90
9790;DHT22;4934;50.852;8.098;2023-08-17T06:40:14;18.80;99.90
9790;DHT22;4934;50.852;8.098;2023-08-17T06:42:39;18.80;99.90
9790;DHT22;4934;50.852;8.098;2023-08-17T06:45:06;18.80;99.90
9790;DHT22;4934;50.852;8.098;2023-08-17T06:47:31;18.70;99.90
9790;DHT22;4934;50.852;8.098;2023-08-17T06:49:57;18.80;99.90
9790;DHT22;4934;50.852;8.098;2023-08-17T06:52:23;19.00;99.90
9790;DHT22;4934;50.852;8.098;2023-08-17T06:54:49;19.10;99.90
9790;DHT22;4934;50.852;8.098;2023-08-17T06:57:15;19.20;99.90
9790;DHT22;4934;50.852;8.098;2023-08-17T06:59:40;19.40;99.90
9790;DHT22;4934;50.852;8.098;2023-08-17T07:02:06;19.50;99.90
9790;DHT22;4934;50.852;8.098;2023-08-17T07:04:32;19.50;99.90
9790;DHT22;4934;50.852;8.098;2023-08-17T07:06:57;19.50;99.90
9790;DHT22;4934;50.852;8.098;2023-08-17T07:09:23;19.50;99.90
9790;DHT22;4934;50.852;8.098;2023-08-17T07:11:49;19.60;99.90
9790;DHT22;4934;50.852;8.098;2023-08-17T07:14:15;19.80;99.90
9790;DHT22;4934;50.852;8.098;2023-08-17T07:16:41;19.90;99.90
9790;DHT22;4934;50.852;8.098;2023-08-17T07:19:06;19.70;99.90
9790;DHT22;4934;50.852;8.098;2023-08-17T07:21:32;19.60;99.90
9790;DHT22;4934;50.852;8.098;2023-08-17T07:23:57;19.70;99.90
9790;DHT22;4934;50.852;8.098;2023-08-17T07:26:23;19.50;99.90
9790;DHT22;4934;50.852;8.098;2023-08-17T07:28:49;19.50;99.90
9790;DHT22;4934;50.852;8.098;2023-08-17T07:31:15;19.70;99.90
9790;DHT22;4934;50.852;8.098;2023-08-17T07:33:41;19.80;99.90
9790;DHT22;4934;50.852;8.098;2023-08-17T07:36:07;19.90;99.90
9790;DHT22;4934;50.852;8.098;2023-08-17T07:38:32;20.10;99.90
9790;DHT22;4934;50.852;8.098;2023-08-17T07:40:58;20.20;99.90
9790;DHT22;4934;50.852;8.098;2023-08-17T07:43:24;20.30;99.90
9790;DHT22;4934;50.852;8.098;2023-08-17T07:45:54;20.40;99.90
9790;DHT22;4934;50.852;8.098;2023-08-17T07:48:20;20.20;99.90
9790;DHT22;4934;50.852;8.098;2023-08-17T07:50:51;20.40;99.90
9790;DHT22;4934;50.852;8.098;2023-08-17T07:53:21;20.50;99.90
9790;DHT22;4934;50.852;8.098;2023-08-17T07:55:46;20.60;99.90
9790;DHT22;4934;50.852;8.098;2023-08-17T07:58:12;20.50;99.90
9790;DHT22;4934;50.852;8.098;2023-08-17T08:00:38;20.30;99.90
9790;DHT22;4934;50.852;8.098;2023-08-17T08:03:03;20.30;99.90
9790;DHT22;4934;50.852;8.098;2023-08-17T08:05:29;20.60;99.90
9790;DHT22;4934;50.852;8.098;2023-08-17T08:07:55;20.70;99.90
9790;DHT22;4934;50.852;8.098;2023-08-17T08:10:21;20.90;99.90
9790;DHT22;4934;50.852;8.098;2023-08-17T08:12:47;21.20;99.90
9790;DHT22;4934;50.852;8.098;2023-08-17T08:15:12;21.50;99.90
9790;DHT22;4934;50.852;8.098;2023-08-17T08:17:38;21.80;99.90
9790;DHT22;4934;50.852;8.098;2023-08-17T08:20:04;22.00;99.90
9790;DHT22;4934;50.852;8.098;2023-08-17T08:22:30;21.80;99.90
9790;DHT22;4934;50.852;8.098;2023-08-17T08:24:57;21.60;99.90
9790;DHT22;4934;50.852;8.098;2023-08-17T08:27:22;21.60;99.90
9790;DHT22;4934;50.852;8.098;2023-08-17T08:29:48;21.70;99.90
9790;DHT22;4934;50.852;8.098;2023-08-17T08:32:14;21.90;99.90
9790;DHT22;4934;50.852;8.098;2023-08-17T08:34:40;22.20;99.90
9790;DHT22;4934;50.852;8.098;2023-08-17T08:37:05;22.10;99.90
9790;DHT22;4934;50.852;8.098;2023-08-17T08:39:31;22.10;99.90
9790;DHT22;4934;50.852;8.098;2023-08-17T08:41:56;22.20;99.90
9790;DHT22;4934;50.852;8.098;2023-08-17T08:44:23;22.40;99.90
9790;DHT22;4934;50.852;8.098;2023-08-17T08:46:49;22.30;99.90
9790;DHT22;4934;50.852;8.098;2023-08-17T08:49:19;22.30;99.90
9790;DHT22;4934;50.852;8.098;2023-08-17T08:51:49;22.00;99.90
9790;DHT22;4934;50.852;8.098;2023-08-17T08:54:20;22.10;99.90
9790;DHT22;4934;50.852;8.098;2023-08-17T08:56:46;22.20;99.90
9790;DHT22;4934;50.852;8.098;2023-08-17T08:59:16;22.30;99.90
9790;DHT22;4934;50.852;8.098;2023-08-17T09:01:42;22.30;99.90
9790;DHT22;4934;50.852;8.098;2023-08-17T09:04:08;22.30;99.90
9790;DHT22;4934;50.852;8.098;2023-08-17T09:06:34;22.30;99.90
9790;DHT22;4934;50.852;8.098;2023-08-17T09:09:01;22.40;99.90
9790;DHT22;4934;50.852;8.098;2023-08-17T09:11:28;22.30;99.90
9790;DHT22;4934;50.852;8.098;2023-08-17T09:13:53;22.40;99.90
9790;DHT22;4934;50.852;8.098;2023-08-17T09:16:20;22.40;99.90
9790;DHT22;4934;50.852;8.098;2023-08-17T09:18:45;22.30;99.90
9790;DHT22;4934;50.852;8.098;2023-08-17T09:21:22;22.70;99.90
9790;DHT22;4934;50.852;8.098;2023-08-17T09:23:56;22.50;99.90
9790;DHT22;4934;50.852;8.098;2023-08-17T09:26:22;22.80;99.90
9790;DHT22;4934;50.852;8.098;2023-08-17T09:28:51;23.00;99.90
9790;DHT22;4934;50.852;8.098;2023-08-17T09:31:23;22.90;99.90
9790;DHT22;4934;50.852;8.098;2023-08-17T09:33:53;23.10;99.90
9790;DHT22;4934;50.852;8.098;2023-08-17T09:36:22;23.10;99.90
9790;DHT22;4934;50.852;8.098;2023-08-17T09:38:48;23.00;99.90
9790;DHT22;4934;50.852;8.098;2023-08-17T09:41:18;23.00;99.90
9790;DHT22;4934;50.852;8.098;2023-08-17T09:43:45;22.60;99.90
9790;DHT22;4934;50.852;8.098;2023-08-17T09:46:11;22.80;99.90
9790;DHT22;4934;50.852;8.098;2023-08-17T09:48:37;22.60;99.90
9790;DHT22;4934;50.852;8.098;2023-08-17T09:51:02;22.50;99.90
9790;DHT22;4934;50.852;8.098;2023-08-17T09:53:28;22.70;99.90
9790;DHT22;4934;50.852;8.098;2023-08-17T09:55:54;23.00;99.90
9790;DHT22;4934;50.852;8.098;2023-08-17T09:58:21;22.80;99.90
9790;DHT22;4934;50.852;8.098;2023-08-17T10:00:49;22.70;99.90
9790;DHT22;4934;50.852;8.098;2023-08-17T10:03:16;23.20;99.90
9790;DHT22;4934;50.852;8.098;2023-08-17T10:05:44;23.10;99.90
9790;DHT22;4934;50.852;8.098;2023-08-17T10:08:11;22.90;99.90
9790;DHT22;4934;50.852;8.098;2023-08-17T10:10:42;22.70;99.90
9790;DHT22;4934;50.852;8.098;2023-08-17T10:13:16;22.60;99.90
9790;DHT22;4934;50.852;8.098;2023-08-17T10:18:50;22.60;99.90
9790;DHT22;4934;50.852;8.098;2023-08-17T10:21:28;22.80;99.90
9790;DHT22;4934;50.852;8.098;2023-08-17T10:23:58;22.70;99.90
9790;DHT22;4934;50.852;8.098;2023-08-17T10:26:24;22.80;99.90
9790;DHT22;4934;50.852;8.098;2023-08-17T10:28:52;22.70;99.90
9790;DHT22;4934;50.852;8.098;2023-08-17T10:31:17;22.80;99.90
9790;DHT22;4934;50.852;8.098;2023-08-17T10:33:44;23.10;99.90
9790;DHT22;4934;50.852;8.098;2023-08-17T10:36:13;23.20;99.90
9790;DHT22;4934;50.852;8.098;2023-08-17T10:38:39;23.10;99.90
9790;DHT22;4934;50.852;8.098;2023-08-17T10:41:12;23.10;99.90
9790;DHT22;4934;50.852;8.098;2023-08-17T10:43:57;23.40;99.90
9790;DHT22;4934;50.852;8.098;2023-08-17T10:46:36;23.50;99.90
9790;DHT22;4934;50.852;8.098;2023-08-17T10:49:07;23.60;99.90
9790;DHT22;4934;50.852;8.098;2023-08-17T10:51:33;23.70;99.90
9790;DHT22;4934;50.852;8.098;2023-08-17T10:54:01;24.00;99.90
9790;DHT22;4934;50.852;8.098;2023-08-17T10:56:28;24.30;99.90
9790;DHT22;4934;50.852;8.098;2023-08-17T10:58:54;24.40;99.90
9790;DHT22;4934;50.852;8.098;2023-08-17T11:01:35;24.20;99.90
9790;DHT22;4934;50.852;8.098;2023-08-17T11:04:17;24.10;99.90
9790;DHT22;4934;50.852;8.098;2023-08-17T11:06:44;24.10;99.90
9790;DHT22;4934;50.852;8.098;2023-08-17T11:09:09;24.10;99.90
9790;DHT22;4934;50.852;8.098;2023-08-17T11:11:35;24.50;99.90
9790;DHT22;4934;50.852;8.098;2023-08-17T11:14:01;24.60;99.90
9790;DHT22;4934;50.852;8.098;2023-08-17T11:16:26;24.90;99.90
9790;DHT22;4934;50.852;8.098;2023-08-17T11:18:52;24.90;99.90
9790;DHT22;4934;50.852;8.098;2023-08-17T11:21:18;24.90;99.90
9790;DHT22;4934;50.852;8.098;2023-08-17T11:23:44;24.80;99.90
9790;DHT22;4934;50.852;8.098;2023-08-17T11:26:11;25.10;99.90
9790;DHT22;4934;50.852;8.098;2023-08-17T11:28:37;25.20;99.90
9790;DHT22;4934;50.852;8.098;2023-08-17T11:31:11;25.30;99.90
9790;DHT22;4934;50.852;8.098;2023-08-17T11:33:38;24.90;99.90
9790;DHT22;4934;50.852;8.098;2023-08-17T11:36:06;24.60;99.90
9790;DHT22;4934;50.852;8.098;2023-08-17T11:38:33;24.50;99.90
9790;DHT22;4934;50.852;8.098;2023-08-17T11:40:59;24.40;99.90
9790;DHT22;4934;50.852;8.098;2023-08-17T11:43:26;24.80;99.90
9790;DHT22;4934;50.852;8.098;2023-08-17T11:45:53;25.10;99.90
9790;DHT22;4934;50.852;8.098;2023-08-17T11:48:20;25.20;99.90
9790;DHT22;4934;50.852;8.098;2023-08-17T11:50:45;25.20;99.90
9790;DHT22;4934;50.852;8.098;2023-08-17T11:53:11;24.90;99.90
9790;DHT22;4934;50.852;8.098;2023-08-17T11:55:37;24.50;99.90
9790;DHT22;4934;50.852;8.098;2023-08-17T11:58:03;24.40;99.90
9790;DHT22;4934;50.852;8.098;2023-08-17T12:00:43;24.60;99.90
9790;DHT22;4934;50.852;8.098;2023-08-17T12:03:13;24.50;99.90
9790;DHT22;4934;50.852;8.098;2023-08-17T12:05:40;24.60;99.90
9790;DHT22;4934;50.852;8.098;2023-08-17T12:08:07;24.90;99.90
9790;DHT22;4934;50.852;8.098;2023-08-17T12:10:33;24.90;99.90
9790;DHT22;4934;50.852;8.098;2023-08-17T12:12:59;24.80;99.90
9790;DHT22;4934;50.852;8.098;2023-08-17T12:15:36;24.80;99.90
9790;DHT22;4934;50.852;8.098;2023-08-17T12:18:03;24.60;99.90
9790;DHT22;4934;50.852;8.098;2023-08-17T12:20:29;24.60;99.90
9790;DHT22;4934;50.852;8.098;2023-08-17T12:22:57;24.70;99.90
9790;DHT22;4934;50.852;8.098;2023-08-17T12:25:23;25.10;99.90
9790;DHT22;4934;50.852;8.098;2023-08-17T12:27:49;24.80;99.90
9790;DHT22;4934;50.852;8.098;2023-08-17T12:30:25;25.30;99.90
9790;DHT22;4934;50.852;8.098;2023-08-17T12:32:51;24.90;99.90
9790;DHT22;4934;50.852;8.098;2023-08-17T12:35:17;24.80;99.90
9790;DHT22;4934;50.852;8.098;2023-08-17T12:37:43;25.10;99.90
9790;DHT22;4934;50.852;8.098;2023-08-17T12:40:09;25.10;99.90
9790;DHT22;4934;50.852;8.098;2023-08-17T12:42:35;24.90;99.90
9790;DHT22;4934;50.852;8.098;2023-08-17T12:45:01;24.90;99.90
9790;DHT22;4934;50.852;8.098;2023-08-17T12:47:27;25.30;99.90
9790;DHT22;4934;50.852;8.098;2023-08-17T12:49:52;25.70;99.90
9790;DHT22;4934;50.852;8.098;2023-08-17T12:52:18;26.20;99.90
9790;DHT22;4934;50.852;8.098;2023-08-17T12:54:43;26.50;99.90
9790;DHT22;4934;50.852;8.098;2023-08-17T12:57:09;27.00;99.90
9790;DHT22;4934;50.852;8.098;2023-08-17T12:59:34;26.80;99.90
9790;DHT22;4934;50.852;8.098;2023-08-17T13:02:00;26.50;99.90
9790;DHT22;4934;50.852;8.098;2023-08-17T13:04:25;26.80;99.90
9790;DHT22;4934;50.852;8.098;2023-08-17T13:06:51;27.00;99.90
9790;DHT22;4934;50.852;8.098;2023-08-17T13:09:17;27.10;99.90
9790;DHT22;4934;50.852;8.098;2023-08-17T13:11:44;27.40;99.90
9790;DHT22;4934;50.852;8.098;2023-08-17T13:14:11;26.60;99.90
9790;DHT22;4934;50.852;8.098;2023-08-17T13:16:37;26.30;99.90
9790;DHT22;4934;50.852;8.098;2023-08-17T13:19:03;26.30;99.90
9790;DHT22;4934;50.852;8.098;2023-08-17T13:21:28;26.50;99.90
9790;DHT22;4934;50.852;8.098;2023-08-17T13:23:54;26.60;99.90
9790;DHT22;4934;50.852;8.098;2023-08-17T13:26:22;26.20;99.90
9790;DHT22;4934;50.852;8.098;2023-08-17T13:28:47;26.20;99.90
9790;DHT22;4934;50.852;8.098;2023-08-17T13:31:13;26.10;99.90
9790;DHT22;4934;50.852;8.098;2023-08-17T13:33:39;26.30;99.90
9790;DHT22;4934;50.852;8.098;2023-08-17T13:36:04;26.60;99.90
9790;DHT22;4934;50.852;8.098;2023-08-17T13:38:30;26.50;99.90
9790;DHT22;4934;50.852;8.098;2023-08-17T13:40:56;26.50;99.90
9790;DHT22;4934;50.852;8.098;2023-08-17T13:43:22;26.20;99.90
9790;DHT22;4934;50.852;8.098;2023-08-17T13:45:48;26.40;99.90
9790;DHT22;4934;50.852;8.098;2023-08-17T13:48:13;26.60;99.90
9790;DHT22;4934;50.852;8.098;2023-08-17T13:50:39;26.90;99.90
9790;DHT22;4934;50.852;8.098;2023-08-17T13:53:05;26.80;99.90
9790;DHT22;4934;50.852;8.098;2023-08-17T13:55:31;26.90;99.90
9790;DHT22;4934;50.852;8.098;2023-08-17T13:57:57;27.00;99.90
9790;DHT22;4934;50.852;8.098;2023-08-17T14:00:24;27.10;99.90
9790;DHT22;4934;50.852;8.098;2023-08-17T14:02:49;26.90;99.90
9790;DHT22;4934;50.852;8.098;2023-08-17T14:05:15;26.90;99.90
9790;DHT22;4934;50.852;8.098;2023-08-17T14:07:41;27.10;99.90
9790;DHT22;4934;50.852;8.098;2023-08-17T14:10:07;27.10;99.90
9790;DHT22;4934;50.852;8.098;2023-08-17T14:12:33;27.10;99.90
9790;DHT22;4934;50.852;8.098;2023-08-17T14:14:59;27.10;99.90
9790;DHT22;4934;50.852;8.098;2023-08-17T14:17:25;27.20;99.90
9790;DHT22;4934;50.852;8.098;2023-08-17T14:19:50;27.30;99.90
9790;DHT22;4934;50.852;8.098;2023-08-17T14:22:16;27.10;99.90
9790;DHT22;4934;50.852;8.098;2023-08-17T14:24:41;27.20;99.90
9790;DHT22;4934;50.852;8.098;2023-08-17T14:27:07;27.30;99.90
9790;DHT22;4934;50.852;8.098;2023-08-17T14:29:32;26.60;99.90
9790;DHT22;4934;50.852;8.098;2023-08-17T14:31:58;26.20;99.90
9790;DHT22;4934;50.852;8.098;2023-08-17T14:34:23;25.70;99.90
9790;DHT22;4934;50.852;8.098;2023-08-17T14:36:49;25.60;99.90
9790;DHT22;4934;50.852;8.098;2023-08-17T14:39:14;25.30;99.90
9790;DHT22;4934;50.852;8.098;2023-08-17T14:41:40;25.40;99.90
9790;DHT22;4934;50.852;8.098;2023-08-17T14:44:05;25.40;99.90
9790;DHT22;4934;50.852;8.098;2023-08-17T14:46:31;25.60;99.90
9790;DHT22;4934;50.852;8.098;2023-08-17T14:48:57;26.00;99.90
9790;DHT22;4934;50.852;8.098;2023-08-17T14:51:24;26.30;99.90
9790;DHT22;4934;50.852;8.098;2023-08-17T14:53:49;26.30;99.90
9790;DHT22;4934;50.852;8.098;2023-08-17T14:56:15;26.30;99.90
9790;DHT22;4934;50.852;8.098;2023-08-17T14:58:41;26.30;99.90
9790;DHT22;4934;50.852;8.098;2023-08-17T15:01:07;26.30;99.90
9790;DHT22;4934;50.852;8.098;2023-08-17T15:03:33;26.30;99.90
9790;DHT22;4934;50.852;8.098;2023-08-17T15:05:58;26.30;99.90
9790;DHT22;4934;50.852;8.098;2023-08-17T15:08:24;26.40;99.90
9790;DHT22;4934;50.852;8.098;2023-08-17T15:10:51;26.20;99.90
9790;DHT22;4934;50.852;8.098;2023-08-17T15:13:16;26.20;99.90
9790;DHT22;4934;50.852;8.098;2023-08-17T15:15:43;26.30;99.90
9790;DHT22;4934;50.852;8.098;2023-08-17T15:18:09;26.10;99.90
9790;DHT22;4934;50.852;8.098;2023-08-17T15:20:35;26.30;99.90
9790;DHT22;4934;50.852;8.098;2023-08-17T15:23:01;26.20;99.90
9790;DHT22;4934;50.852;8.098;2023-08-17T15:25:26;26.00;99.90
9790;DHT22;4934;50.852;8.098;2023-08-17T15:27:52;25.70;99.90
9790;DHT22;4934;50.852;8.098;2023-08-17T15:30:18;25.80;99.90
9790;DHT22;4934;50.852;8.098;2023-08-17T15:32:43;25.90;99.90
9790;DHT22;4934;50.852;8.098;2023-08-17T15:35:10;25.80;99.90
9790;DHT22;4934;50.852;8.098;2023-08-17T15:37:39;26.10;99.90
9790;DHT22;4934;50.852;8.098;2023-08-17T15:40:05;26.00;99.90
9790;DHT22;4934;50.852;8.098;2023-08-17T15:42:31;26.00;99.90
9790;DHT22;4934;50.852;8.098;2023-08-17T15:44:57;26.10;99.90
9790;DHT22;4934;50.852;8.098;2023-08-17T15:47:22;26.00;99.90
9790;DHT22;4934;50.852;8.098;2023-08-17T15:49:48;25.60;99.90
9790;DHT22;4934;50.852;8.098;2023-08-17T15:52:14;25.30;99.90
9790;DHT22;4934;50.852;8.098;2023-08-17T15:54:40;25.40;99.90
9790;DHT22;4934;50.852;8.098;2023-08-17T15:57:06;25.50;99.90
9790;DHT22;4934;50.852;8.098;2023-08-17T15:59:32;25.40;99.90
9790;DHT22;4934;50.852;8.098;2023-08-17T16:01:57;25.60;99.90